Time;durP1;ratioP1;P1;durP2;ratioP2;P2;SDS_P1;SDS_P2;PMS_P1;PMS_P2;Temp;Humidity;BMP_temperature;BMP_pressure;BME280_temperature;BME280_humidity;BME280_pressure;Samples;Min_cycle;Max_cycle;Signal;HPM_P1;HPM_P2
2020/12/05 00:05:55;;;;;;;16.3;11.1;;;;;;;6.16;72.83691;97728.19;;;;
2020/12/05 00:15:54;;;;;;;12;10;;;;;;;6.32;72.14941;97714.17;;;;
2020/12/05 00:25:54;;;;;;;15.7;9.5;;;;;;;6.3;72.30176;97715.58;;;;
2020/12/05 00:35:51;;;;;;;16.1;10.9;;;;;;;6.17;72.7832;97732.45;;;;
2020/12/05 00:45:49;;;;;;;14.9;11.8;;;;;;;5.97;73.38867;97747.8;;;;
2020/12/05 00:55:47;;;;;;;15.9;11.3;;;;;;;6;73.60352;97754.46;;;;
2020/12/05 01:05:46;;;;;;;15.4;10.5;;;;;;;6.21;73.20215;97741.47;;;;
2020/12/05 01:15:44;;;;;;;14.6;9.8;;;;;;;6.49;72.40234;97749.13;;;;
2020/12/05 01:25:43;;;;;;;14.7;8.6;;;;;;;6.79;71.20801;97758.38;;;;
2020/12/05 01:35:41;;;;;;;14.5;10.6;;;;;;;6.75;71.51465;97761.95;;;;
2020/12/05 01:45:39;;;;;;;13.5;8.7;;;;;;;6.84;71.25977;97752.09;;;;
2020/12/05 01:55:38;;;;;;;10.8;8.6;;;;;;;6.84;71.19238;97746.73;;;;
2020/12/05 02:05:36;;;;;;;10.6;8.4;;;;;;;6.78;71.25098;97740.72;;;;
2020/12/05 02:15:35;;;;;;;9.3;8.3;;;;;;;7.06;70.25391;97742.19;;;;
2020/12/05 02:25:33;;;;;;;12.2;8.8;;;;;;;7.04;70.27246;97751.64;;;;
2020/12/05 02:35:32;;;;;;;9.6;8.1;;;;;;;6.71;71.12793;97745.7;;;;
2020/12/05 02:45:32;;;;;;;11.7;9;;;;;;;6.46;71.9707;97759.64;;;;
2020/12/05 02:55:29;;;;;;;11.9;8.4;;;;;;;6.34;72.31934;97770.08;;;;
2020/12/05 03:05:27;;;;;;;12.2;9;;;;;;;6.13;72.99902;97779.61;;;;
2020/12/05 03:25:24;;;;;;;11.5;8.2;;;;;;;5.64;74.87109;97770.34;;;;
2020/12/05 03:35:25;;;;;;;12;9.6;;;;;;;5.55;75.69238;97764.11;;;;
2020/12/05 03:45:21;;;;;;;15.8;11.1;;;;;;;5.7;75.28223;97744.3;;;;
2020/12/05 03:55:19;;;;;;;14.6;10.9;;;;;;;5.79;74.86426;97742.55;;;;
2020/12/05 04:05:18;;;;;;;14.2;10.9;;;;;;;5.72;75.0752;97740.27;;;;
2020/12/05 04:15:17;;;;;;;12.1;10;;;;;;;5.86;74.7627;97759.02;;;;
2020/12/05 04:25:15;;;;;;;12.2;9;;;;;;;5.59;75.2207;97757.06;;;;
2020/12/05 04:35:13;;;;;;;12;9.4;;;;;;;6.03;74.83984;97751.98;;;;
2020/12/05 04:45:11;;;;;;;10.4;7.8;;;;;;;6.04;75.09668;97766.13;;;;
2020/12/05 04:55:10;;;;;;;12.1;8.4;;;;;;;5.9;74.90625;97776.83;;;;
2020/12/05 05:05:08;;;;;;;14.1;11.3;;;;;;;5.33;75.74219;97777.31;;;;
2020/12/05 05:15:06;;;;;;;13.5;9.4;;;;;;;5.35;76.21582;97785.81;;;;
2020/12/05 05:25:05;;;;;;;13.7;9.4;;;;;;;5.45;76.40039;97780.3;;;;
2020/12/05 05:35:03;;;;;;;11.2;9.4;;;;;;;5.46;76.54688;97805.94;;;;
2020/12/05 05:45:02;;;;;;;12.3;9.9;;;;;;;5.33;76.82422;97812.84;;;;
2020/12/05 05:55:00;;;;;;;12.5;9.4;;;;;;;5.59;76.94922;97826.55;;;;
2020/12/05 06:04:58;;;;;;;26.9;16.3;;;;;;;5.86;76.40625;97823.98;;;;
2020/12/05 06:14:57;;;;;;;13.5;9.9;;;;;;;6.21;75.19336;97833.23;;;;
2020/12/05 06:24:55;;;;;;;12.9;10.6;;;;;;;6.3;74.95215;97844.02;;;;
2020/12/05 06:34:53;;;;;;;13.6;10.3;;;;;;;6.29;75.23047;97853.13;;;;
2020/12/05 06:44:52;;;;;;;12.4;10.5;;;;;;;6.25;75.32324;97871.66;;;;
2020/12/05 06:54:56;;;;;;;15.9;9.8;;;;;;;6.2;75.48145;97868.3;;;;
2020/12/05 07:04:49;;;;;;;13.3;10.5;;;;;;;6.27;75.43945;97884.75;;;;
2020/12/05 07:14:47;;;;;;;11.9;9.8;;;;;;;6.5;74.86328;97902.49;;;;
2020/12/05 07:24:47;;;;;;;11.8;10.5;;;;;;;6.69;74.82813;97899.72;;;;
2020/12/05 07:34:46;;;;;;;15.7;11.5;;;;;;;6.75;74.11133;97907.35;;;;
2020/12/05 07:44:43;;;;;;;11.6;8.9;;;;;;;6.83;73.8457;97921.93;;;;
2020/12/05 07:54:41;;;;;;;16.3;11.2;;;;;;;7.06;73.30273;97921.7;;;;
2020/12/05 08:04:40;;;;;;;14.5;10.8;;;;;;;7.06;73.59375;97932.41;;;;
2020/12/05 08:14:38;;;;;;;15.8;12.3;;;;;;;7.22;73.08301;97950.86;;;;
2020/12/05 08:24:37;;;;;;;14.7;11;;;;;;;7.25;72.83008;97955.61;;;;
2020/12/05 08:34:35;;;;;;;15.1;13.3;;;;;;;7.46;72.0918;97952.16;;;;
2020/12/05 08:44:34;;;;;;;14.3;12.8;;;;;;;7.62;71.87012;97975.96;;;;
2020/12/05 08:54:32;;;;;;;25.2;17.3;;;;;;;7.7;71.23242;97964.52;;;;
2020/12/05 09:04:31;;;;;;;27.5;24.6;;;;;;;7.89;71.29883;97970.5;;;;
2020/12/05 09:14:30;;;;;;;36.8;30.5;;;;;;;8.06;70.60742;97971.41;;;;
2020/12/05 09:34:27;;;;;;;17.1;14.3;;;;;;;8.51;69.10449;97949.89;;;;
2020/12/05 09:44:26;;;;;;;19.1;14.5;;;;;;;8.68;69.14453;97949.97;;;;
2020/12/05 09:54:24;;;;;;;8.6;7;;;;;;;9.21;66.97168;97930.19;;;;
2020/12/05 10:04:23;;;;;;;10.3;8;;;;;;;9.4;66.38086;97938.77;;;;
2020/12/05 10:14:22;;;;;;;10.9;8.4;;;;;;;9.58;65.90039;97935.76;;;;
2020/12/05 10:24:21;;;;;;;13.3;10.2;;;;;;;9.74;67.30273;97951.44;;;;
2020/12/05 10:34:20;;;;;;;10.6;9.4;;;;;;;9.88;66.93945;97943.99;;;;
2020/12/05 10:44:18;;;;;;;18.9;16.9;;;;;;;10.02;65.51367;97950;;;;
2020/12/05 10:54:17;;;;;;;17.2;12.9;;;;;;;10.09;64.93652;97950.3;;;;
2020/12/05 11:04:16;;;;;;;17.3;13.1;;;;;;;10.25;63.82813;97945.22;;;;
2020/12/05 11:14:15;;;;;;;19.4;15;;;;;;;10.19;64.91699;97941.91;;;;
2020/12/05 11:24:14;;;;;;;29.8;24;;;;;;;10.1;67.01953;97941.89;;;;
2020/12/05 11:34:13;;;;;;;24.5;20;;;;;;;9.85;67.58984;97961.58;;;;
2020/12/05 11:44:12;;;;;;;21.8;14.8;;;;;;;9.96;65.99219;97965.5;;;;
2020/12/05 11:54:10;;;;;;;18.7;14.2;;;;;;;9.99;66.12207;97983.73;;;;
2020/12/05 12:04:09;;;;;;;14.3;11.5;;;;;;;9.98;66.03809;97978.66;;;;
2020/12/05 12:14:08;;;;;;;18.4;10.6;;;;;;;10.01;65.78418;97996.86;;;;
2020/12/05 12:24:07;;;;;;;18.4;11.8;;;;;;;10.02;65.70605;97990.38;;;;
2020/12/05 12:34:07;;;;;;;15.3;11.7;;;;;;;9.9;66.30859;98000.97;;;;
2020/12/05 12:44:05;;;;;;;18.5;14.4;;;;;;;9.84;66.6748;98000.35;;;;
2020/12/05 12:54:04;;;;;;;19.3;17.2;;;;;;;9.79;67.08496;98002.42;;;;
2020/12/05 13:04:03;;;;;;;23.6;18.2;;;;;;;9.82;67.10059;98017.93;;;;
2020/12/05 13:14:02;;;;;;;20.5;16.1;;;;;;;9.8;67.17676;98029;;;;
2020/12/05 13:24:00;;;;;;;23.8;18.6;;;;;;;9.75;67.15723;98029.17;;;;
2020/12/05 13:34:02;;;;;;;24.5;17.6;;;;;;;9.7;67.55469;98044.66;;;;
2020/12/05 13:43:59;;;;;;;21.1;16.4;;;;;;;9.59;67.36914;98049.55;;;;
2020/12/05 13:53:58;;;;;;;19.1;15.9;;;;;;;9.44;67.89844;98063.45;;;;
2020/12/05 14:03:55;;;;;;;15.6;11.1;;;;;;;9.43;67.57031;98064.55;;;;
2020/12/05 14:13:54;;;;;;;12.7;10.9;;;;;;;9.54;66.67188;98071.23;;;;
2020/12/05 14:23:53;;;;;;;13.4;10.1;;;;;;;9.52;66.36523;98076.11;;;;
2020/12/05 14:33:52;;;;;;;18.7;11.9;;;;;;;9.48;66.36914;98093.98;;;;
2020/12/05 14:43:51;;;;;;;12.8;10.2;;;;;;;9.4;66.71973;98114.38;;;;
2020/12/05 14:53:49;;;;;;;20.3;14.3;;;;;;;9.29;66.47754;98126.52;;;;
2020/12/05 15:03:48;;;;;;;15.5;11.2;;;;;;;9.12;66.70996;98128.33;;;;
2020/12/05 15:13:47;;;;;;;21;15.6;;;;;;;9.03;66.94531;98133.64;;;;
2020/12/05 15:23:48;;;;;;;31.7;28.3;;;;;;;8.8;67.33789;98135.58;;;;
2020/12/05 15:33:44;;;;;;;49.6;40;;;;;;;8.53;68.05078;98147.25;;;;
2020/12/05 15:43:43;;;;;;;96.5;76.1;;;;;;;8.26;68.52637;98131.17;;;;
2020/12/05 15:53:42;;;;;;;38.5;34.5;;;;;;;8.46;68.68066;98168.36;;;;
2020/12/05 16:03:40;;;;;;;27.3;24.4;;;;;;;8.27;69.26855;98153.45;;;;
2020/12/05 16:13:39;;;;;;;40.5;36.3;;;;;;;8.37;69.21875;98155.94;;;;
2020/12/05 16:23:37;;;;;;;38.3;31.9;;;;;;;8.03;69.96289;98167.92;;;;
2020/12/05 16:33:37;;;;;;;27.9;24;;;;;;;7.81;71.29688;98159.02;;;;
2020/12/05 16:43:35;;;;;;;23.9;20.5;;;;;;;7.76;71.44629;98154.55;;;;
2020/12/05 16:53:33;;;;;;;26.9;23.1;;;;;;;7.62;71.74805;98153.76;;;;
2020/12/05 17:03:32;;;;;;;44.5;36.9;;;;;;;7.69;71.75879;98164.08;;;;
2020/12/05 17:13:30;;;;;;;45.7;35.1;;;;;;;7.81;71.07227;98159.8;;;;
2020/12/05 17:23:29;;;;;;;33.8;24.7;;;;;;;8.01;70.24023;98151.34;;;;
2020/12/05 17:33:27;;;;;;;91.7;76.4;;;;;;;7.8;70.4082;98155.55;;;;
2020/12/05 17:43:26;;;;;;;41.3;35.6;;;;;;;7.36;71.99609;98152.64;;;;
2020/12/05 17:53:24;;;;;;;37.2;31.2;;;;;;;7.01;72.4082;98151.42;;;;
2020/12/05 18:03:23;;;;;;;95.9;73.8;;;;;;;6.71;73.67871;98173.34;;;;
2020/12/05 18:13:21;;;;;;;30.2;23.4;;;;;;;6.56;75.0752;98169.81;;;;
2020/12/05 18:23:20;;;;;;;27.8;20.5;;;;;;;6.46;74.82324;98179.88;;;;
2020/12/05 18:33:19;;;;;;;29.1;25.1;;;;;;;6.43;75.4668;98191.97;;;;
2020/12/05 18:43:17;;;;;;;23.8;21.1;;;;;;;6.28;75.89941;98184.14;;;;
2020/12/05 18:53:15;;;;;;;87.5;64.4;;;;;;;6.11;77.20801;98199.13;;;;
2020/12/05 19:03:13;;;;;;;31.3;26.2;;;;;;;6.16;76.46875;98196.37;;;;
2020/12/05 19:13:12;;;;;;;31.4;27;;;;;;;6.04;76.24707;98204.8;;;;
2020/12/05 19:23:10;;;;;;;41.9;32;;;;;;;5.93;76.3623;98212.19;;;;
2020/12/05 19:33:10;;;;;;;52.5;44.1;;;;;;;5.72;76.6709;98218.02;;;;
2020/12/05 19:43:07;;;;;;;48.9;37.4;;;;;;;5.39;77.52637;98217.02;;;;
2020/12/05 19:53:05;;;;;;;39.7;28;;;;;;;5.16;78.9209;98209.77;;;;
2020/12/05 20:03:03;;;;;;;33.4;29.8;;;;;;;5;78.68164;98209.89;;;;
2020/12/05 20:13:02;;;;;;;40.6;31.6;;;;;;;4.89;80.50781;98215.62;;;;
2020/12/05 20:23:00;;;;;;;38.5;28.8;;;;;;;5.12;80.47266;98203.39;;;;
2020/12/05 20:32:58;;;;;;;56.6;36.7;;;;;;;5.4;79.5;98205.26;;;;
2020/12/05 20:42:56;;;;;;;39.2;31.6;;;;;;;5.75;78.04785;98182.69;;;;
2020/12/05 20:52:55;;;;;;;41.3;30.6;;;;;;;6.12;76.42773;98195.34;;;;
2020/12/05 21:02:53;;;;;;;44.8;33.3;;;;;;;6.11;75.96777;98191.09;;;;
2020/12/05 21:12:51;;;;;;;34.6;29.1;;;;;;;6.24;75.28809;98195.73;;;;
2020/12/05 21:22:50;;;;;;;42.9;31.9;;;;;;;6.16;75.33105;98191.81;;;;
2020/12/05 21:32:49;;;;;;;37.5;31.1;;;;;;;5.76;76.12988;98181.61;;;;
2020/12/05 21:42:49;;;;;;;46.5;34.4;;;;;;;6.18;75.34375;98202.24;;;;
2020/12/05 21:52:45;;;;;;;49.8;38.7;;;;;;;6.16;75.36426;98199.84;;;;
2020/12/05 22:02:46;;;;;;;37.9;31.9;;;;;;;5.94;75.69434;98165.61;;;;
2020/12/05 22:12:43;;;;;;;54.8;42.5;;;;;;;5.89;74.99219;98197.78;;;;
2020/12/05 22:22:40;;;;;;;55.2;43.6;;;;;;;4.96;76.91504;98216.09;;;;
2020/12/05 22:32:38;;;;;;;56.5;43.5;;;;;;;4.55;78.44336;98199.56;;;;
2020/12/05 22:42:37;;;;;;;50.5;40;;;;;;;4.25;79.33398;98187.23;;;;
2020/12/05 22:52:35;;;;;;;46.6;32.9;;;;;;;4.32;81.32227;98200.27;;;;
2020/12/05 23:02:33;;;;;;;59.1;39.8;;;;;;;4.51;81.12695;98199.32;;;;
2020/12/05 23:12:31;;;;;;;40.5;30.7;;;;;;;4.61;80.67871;98198.48;;;;
2020/12/05 23:22:29;;;;;;;37.9;29;;;;;;;4.01;79.34473;98192.44;;;;
2020/12/05 23:32:38;;;;;;;46.7;33.1;;;;;;;3.67;81.03516;98188.86;;;;
2020/12/05 23:42:25;;;;;;;46.4;35.6;;;;;;;3.41;80.35449;98189.99;;;;
2020/12/05 23:52:24;;;;;;;43.2;34.5;;;;;;;3.12;82.28125;98203.12;;;;
